Time;durP1;ratioP1;P1;durP2;ratioP2;P2;SDS_P1;SDS_P2;PMS_P1;PMS_P2;Temp;Humidity;BMP_temperature;BMP_pressure;BME280_temperature;BME280_humidity;BME280_pressure;Samples;Min_cycle;Max_cycle;Signal;HPM_P1;HPM_P2
2022/09/16 00:00:55;;;;;;;6.70;1.20;;;16.10;1.00;;;;;;5081993;28;20430;-77
2022/09/16 00:03:52;;;;;;;1.90;1.37;;;16.10;1.00;;;;;;5092726;28;20178;-77
2022/09/16 00:06:24;;;;;;;2.50;1.40;;;16.00;1.00;;;;;;5089947;28;20507;-77
2022/09/16 00:09:43;;;;;;;3.00;1.33;;;16.00;1.00;;;;;;5080426;28;21240;-77
2022/09/16 00:12:26;;;;;;;2.17;1.10;;;16.00;1.00;;;;;;5073173;28;20501;-77
2022/09/16 00:14:53;;;;;;;3.53;1.50;;;16.00;1.00;;;;;;5077570;28;20431;-77
2022/09/16 00:17:20;;;;;;;4.33;1.80;;;16.10;1.00;;;;;;5081142;28;20399;-77
2022/09/16 00:19:46;;;;;;;3.27;1.33;;;16.00;1.00;;;;;;5074446;28;20852;-76
2022/09/16 00:22:12;;;;;;;3.70;1.47;;;16.00;1.00;;;;;;5074342;28;20444;-77
2022/09/16 00:24:43;;;;;;;1.87;1.40;;;16.00;1.00;;;;;;5074505;28;20178;-77
2022/09/16 00:27:31;;;;;;;2.97;1.37;;;16.00;1.00;;;;;;5082517;28;20402;-78
2022/09/16 00:29:57;;;;;;;3.23;1.17;;;16.00;1.00;;;;;;5074081;28;20407;-77
2022/09/16 00:32:25;;;;;;;3.40;1.40;;;16.00;1.00;;;;;;5088410;28;20422;-82
2022/09/16 00:35:31;;;;;;;3.57;1.50;;;16.00;1.00;;;;;;5082828;28;20686;-82
2022/09/16 00:38:13;;;;;;;5.30;1.57;;;15.90;1.00;;;;;;5083649;28;20424;-82
2022/09/16 00:40:48;;;;;;;4.63;1.20;;;15.90;1.00;;;;;;5086457;28;20435;-81
2022/09/16 00:43:19;;;;;;;6.20;1.70;;;15.90;1.00;;;;;;5073724;28;20395;-81
2022/09/16 00:46:07;;;;;;;5.00;1.23;;;15.90;1.00;;;;;;5074305;28;20896;-77
2022/09/16 00:48:38;;;;;;;4.20;1.33;;;15.80;1.00;;;;;;5085576;28;20948;-76
2022/09/16 00:51:09;;;;;;;4.90;1.50;;;15.80;1.00;;;;;;5073892;28;20369;-77
2022/09/16 00:53:59;;;;;;;9.40;2.90;;;15.90;1.00;;;;;;5085536;28;20385;-77
2022/09/16 00:56:27;;;;;;;6.57;1.33;;;15.80;1.00;;;;;;5073848;28;20391;-77
2022/09/16 00:59:01;;;;;;;7.73;1.40;;;15.80;1.00;;;;;;5073516;28;20925;-78
2022/09/16 01:01:30;;;;;;;6.50;1.47;;;15.70;1.00;;;;;;5078034;28;20559;-78
2022/09/16 01:04:12;;;;;;;2.30;0.87;;;15.70;1.00;;;;;;5082998;28;20397;-77
2022/09/16 01:06:38;;;;;;;7.17;1.60;;;15.70;1.00;;;;;;5073673;28;20503;-77
2022/09/16 01:09:37;;;;;;;2.93;1.30;;;15.60;1.00;;;;;;5086487;28;20393;-77
2022/09/16 01:12:03;;;;;;;1.83;1.03;;;15.60;1.00;;;;;;5074098;28;20753;-77
2022/09/16 01:14:52;;;;;;;6.40;1.50;;;15.60;1.00;;;;;;5076302;28;20415;-77
2022/09/16 01:17:50;;;;;;;1.67;1.17;;;15.50;1.00;;;;;;5087363;28;20170;-78
2022/09/16 01:20:58;;;;;;;2.80;2.07;;;15.50;1.00;;;;;;5092285;28;20970;-77
2022/09/16 01:24:19;;;;;;;5.47;1.20;;;15.40;1.00;;;;;;5083629;28;20404;-77
2022/09/16 01:27:06;;;;;;;2.57;1.10;;;15.40;1.00;;;;;;5092691;28;20375;-77
2022/09/16 01:29:49;;;;;;;1.53;1.10;;;15.30;1.00;;;;;;5088751;28;20399;-78
2022/09/16 01:32:43;;;;;;;7.80;1.47;;;15.30;1.00;;;;;;5091576;28;20452;-77
2022/09/16 01:35:36;;;;;;;4.63;1.23;;;15.30;1.00;;;;;;5073210;28;20456;-77
2022/09/16 01:38:10;;;;;;;6.00;1.40;;;15.30;1.00;;;;;;5078692;28;20368;-77
2022/09/16 01:41:08;;;;;;;3.10;1.10;;;15.30;1.00;;;;;;5093548;28;20415;-77
2022/09/16 01:43:54;;;;;;;3.13;1.20;;;15.30;1.00;;;;;;5075688;28;20387;-77
2022/09/16 01:46:38;;;;;;;2.30;0.90;;;15.30;1.00;;;;;;5080870;28;20739;-81
2022/09/16 01:49:45;;;;;;;2.23;1.00;;;15.30;1.00;;;;;;5089778;28;20409;-81
2022/09/16 01:53:00;;;;;;;6.20;1.33;;;15.20;1.00;;;;;;5075821;28;20401;-82
2022/09/16 01:56:15;;;;;;;4.10;1.17;;;15.20;1.00;;;;;;5032483;28;20447;-82
2022/09/16 01:58:56;;;;;;;2.30;1.17;;;15.20;1.00;;;;;;4978092;28;20840;-81
2022/09/16 02:01:39;;;;;;;2.80;1.03;;;15.20;1.00;;;;;;4989269;28;20446;-77
2022/09/16 02:04:16;;;;;;;3.00;1.70;;;15.20;1.00;;;;;;4984694;28;20399;-77
2022/09/16 02:07:04;;;;;;;2.97;1.00;;;15.30;1.00;;;;;;4983401;28;20564;-77
2022/09/16 02:09:43;;;;;;;4.87;1.10;;;15.20;1.00;;;;;;4982022;28;20387;-77
2022/09/16 02:12:20;;;;;;;4.30;1.00;;;15.20;1.00;;;;;;4983998;28;20563;-77
2022/09/16 02:14:52;;;;;;;7.80;1.20;;;15.20;1.00;;;;;;4977593;28;21062;-77
2022/09/16 02:17:40;;;;;;;6.23;1.00;;;15.20;1.00;;;;;;4975947;28;20422;-77
2022/09/16 02:20:13;;;;;;;2.63;0.90;;;15.10;1.00;;;;;;4981874;28;20471;-77
2022/09/16 02:22:57;;;;;;;4.67;1.20;;;15.20;1.00;;;;;;4995190;28;20518;-77
2022/09/16 02:25:41;;;;;;;2.67;1.13;;;15.20;1.00;;;;;;4975448;28;20425;-77
2022/09/16 02:28:19;;;;;;;4.00;0.87;;;15.20;1.00;;;;;;4987328;28;20949;-77
2022/09/16 02:30:50;;;;;;;3.30;1.10;;;15.20;1.00;;;;;;5003874;28;20405;-77
2022/09/16 02:33:18;;;;;;;5.20;0.80;;;15.20;1.00;;;;;;5035078;28;20467;-77
2022/09/16 02:35:48;;;;;;;2.27;0.97;;;15.30;1.00;;;;;;5068058;28;20417;-77
2022/09/16 02:38:33;;;;;;;2.73;1.27;;;15.30;1.00;;;;;;5086668;28;20425;-78
2022/09/16 02:41:02;;;;;;;3.23;0.97;;;15.20;1.00;;;;;;5080896;28;20456;-77
2022/09/16 02:43:28;;;;;;;5.70;1.20;;;15.20;1.00;;;;;;5099329;28;20436;-77
2022/09/16 02:46:31;;;;;;;3.93;1.00;;;15.30;1.00;;;;;;5076550;28;20403;-77
2022/09/16 02:49:17;;;;;;;7.03;1.30;;;15.30;1.00;;;;;;5080934;28;20406;-81
2022/09/16 02:51:56;;;;;;;3.67;1.33;;;15.20;1.00;;;;;;5076102;28;20803;-82
2022/09/16 02:54:57;;;;;;;4.77;1.40;;;15.20;1.00;;;;;;5075785;28;20856;-82
2022/09/16 02:57:26;;;;;;;3.23;1.00;;;15.30;1.00;;;;;;5085921;28;20400;-82
2022/09/16 03:03:25;;;;;;;2.90;0.97;;;15.10;1.00;;;;;;5088372;28;20420;-82
2022/09/16 03:06:43;;;;;;;3.03;1.10;;;15.10;1.00;;;;;;5079726;28;20899;-82
2022/09/16 03:09:44;;;;;;;6.27;1.00;;;15.10;1.00;;;;;;5086728;28;20899;-82
2022/09/16 03:12:44;;;;;;;5.03;1.20;;;15.10;1.00;;;;;;5095704;28;20379;-82
2022/09/16 03:15:50;;;;;;;4.33;1.17;;;15.10;1.00;;;;;;5082883;28;20396;-82
2022/09/16 03:18:37;;;;;;;3.27;0.90;;;15.20;1.00;;;;;;5080660;28;20429;-77
2022/09/16 03:21:18;;;;;;;5.43;1.10;;;15.10;1.00;;;;;;5075625;28;20453;-76
2022/09/16 03:24:01;;;;;;;3.10;1.30;;;15.10;1.00;;;;;;5075491;28;20389;-77
2022/09/16 03:27:07;;;;;;;3.73;1.00;;;15.10;1.00;;;;;;5079926;28;20413;-77
2022/09/16 03:29:38;;;;;;;3.33;0.97;;;15.10;1.00;;;;;;5048549;28;20432;-77
2022/09/16 03:32:20;;;;;;;5.13;1.03;;;15.00;1.00;;;;;;5053160;28;20561;-77
2022/09/16 03:35:25;;;;;;;3.57;1.40;;;15.10;1.00;;;;;;5053358;28;20408;-82
2022/09/16 03:37:57;;;;;;;6.17;1.37;;;15.00;1.00;;;;;;5016490;28;20430;-82
2022/09/16 03:43:54;;;;;;;7.80;1.13;;;15.00;1.00;;;;;;5039359;28;20413;-82
2022/09/16 03:46:37;;;;;;;9.07;1.03;;;14.90;1.00;;;;;;5052902;28;20535;-82
2022/09/16 03:49:03;;;;;;;7.07;1.30;;;14.90;1.00;;;;;;5044153;28;20466;-77
2022/09/16 03:51:29;;;;;;;1.93;0.80;;;15.00;1.00;;;;;;5033703;28;20844;-77
2022/09/16 03:53:55;;;;;;;3.63;1.10;;;15.00;1.00;;;;;;5041162;28;20477;-78
2022/09/16 03:56:55;;;;;;;7.83;1.60;;;14.90;1.00;;;;;;5050163;28;20237;-77
2022/09/16 03:59:31;;;;;;;4.87;1.20;;;14.90;1.00;;;;;;5046535;28;20421;-77
2022/09/16 04:01:57;;;;;;;5.27;1.40;;;14.90;1.00;;;;;;5072472;28;20448;-76
2022/09/16 04:04:31;;;;;;;3.50;1.40;;;14.90;1.00;;;;;;5055374;28;20430;-82
2022/09/16 04:07:07;;;;;;;4.83;1.30;;;14.90;1.00;;;;;;5074538;28;20205;-83
2022/09/16 04:09:43;;;;;;;4.20;1.00;;;14.90;1.00;;;;;;5075066;28;20429;-83
2022/09/16 04:12:37;;;;;;;1.97;1.17;;;14.80;1.00;;;;;;5074510;28;20378;-83
2022/09/16 04:15:19;;;;;;;5.17;1.37;;;14.80;1.00;;;;;;5074450;28;20368;-82
2022/09/16 04:17:49;;;;;;;2.43;1.00;;;14.80;1.00;;;;;;5073743;28;20392;-82
2022/09/16 04:20:37;;;;;;;8.63;1.30;;;14.80;1.00;;;;;;5079165;28;20472;-83
2022/09/16 04:23:31;;;;;;;2.83;1.30;;;14.80;1.00;;;;;;5084888;28;20390;-85
2022/09/16 04:26:02;;;;;;;5.07;1.57;;;14.80;1.00;;;;;;5076269;28;20903;-85
2022/09/16 04:29:07;;;;;;;9.83;1.63;;;14.80;1.00;;;;;;5075434;28;20748;-82
2022/09/16 04:31:32;;;;;;;3.57;1.40;;;14.70;1.00;;;;;;5083260;28;20464;-83
2022/09/16 04:34:01;;;;;;;5.70;1.03;;;14.70;1.00;;;;;;5073394;28;20474;-82
2022/09/16 04:37:07;;;;;;;7.50;1.37;;;14.70;1.00;;;;;;5087750;28;20555;-83
2022/09/16 04:40:13;;;;;;;4.33;1.57;;;14.60;1.00;;;;;;5086171;28;20530;-84
2022/09/16 04:42:58;;;;;;;3.07;1.47;;;14.60;1.00;;;;;;5084144;28;20414;-83
2022/09/16 04:45:25;;;;;;;8.63;1.77;;;14.50;1.00;;;;;;5081368;28;20382;-83
2022/09/16 04:48:01;;;;;;;3.97;1.40;;;14.50;1.00;;;;;;5080953;28;20391;-79
2022/09/16 04:50:27;;;;;;;5.07;1.40;;;14.40;1.00;;;;;;5073637;28;20387;-77
2022/09/16 04:53:01;;;;;;;6.90;2.30;;;14.40;1.00;;;;;;5092975;28;20758;-80
2022/09/16 04:56:07;;;;;;;8.53;1.13;;;14.30;1.00;;;;;;5081360;28;20174;-82
2022/09/16 04:58:33;;;;;;;1.67;1.23;;;14.20;1.00;;;;;;5082496;28;20443;-80
2022/09/16 05:01:44;;;;;;;8.33;1.30;;;14.20;1.00;;;;;;5077175;28;20436;-81
2022/09/16 05:04:49;;;;;;;6.90;1.47;;;14.10;1.00;;;;;;5086082;28;20402;-81
2022/09/16 05:07:15;;;;;;;9.63;1.30;;;14.10;1.00;;;;;;5073525;28;20428;-80
2022/09/16 05:09:55;;;;;;;10.03;1.60;;;14.10;1.00;;;;;;5077438;28;20420;-81
2022/09/16 05:12:25;;;;;;;2.37;1.50;;;14.00;1.00;;;;;;5093768;28;20234;-83
2022/09/16 05:18:17;;;;;;;6.93;1.50;;;14.00;1.00;;;;;;5081425;28;20402;-78
2022/09/16 05:21:37;;;;;;;6.07;1.40;;;14.00;1.00;;;;;;5090474;28;20563;-84
2022/09/16 05:24:13;;;;;;;4.37;1.43;;;14.00;1.00;;;;;;5081581;28;20470;-80
2022/09/16 05:26:41;;;;;;;2.40;1.40;;;14.00;1.00;;;;;;5075049;28;20447;-80
2022/09/16 05:29:15;;;;;;;5.40;1.40;;;14.00;1.00;;;;;;5093520;28;20416;-79
2022/09/16 05:31:43;;;;;;;10.93;2.20;;;14.00;1.00;;;;;;5085759;28;20447;-79
2022/09/16 05:34:28;;;;;;;3.50;1.40;;;14.10;1.00;;;;;;5083320;28;20937;-80
2022/09/16 05:37:37;;;;;;;7.47;1.40;;;14.10;1.00;;;;;;5090315;28;20420;-79
2022/09/16 05:40:07;;;;;;;4.00;2.10;;;14.00;1.00;;;;;;5091301;28;20459;-80
2022/09/16 05:42:47;;;;;;;4.13;1.53;;;13.90;1.00;;;;;;5097587;28;20484;-80
2022/09/16 05:45:20;;;;;;;12.80;3.00;;;14.00;1.00;;;;;;5080588;28;20422;-80
2022/09/16 05:47:50;;;;;;;2.37;1.60;;;14.00;1.00;;;;;;5078687;28;20483;-80
2022/09/16 05:50:16;;;;;;;6.00;2.00;;;14.10;1.00;;;;;;5084411;28;20433;-80
2022/09/16 05:52:43;;;;;;;9.40;2.67;;;14.10;1.00;;;;;;5084555;28;20415;-80
2022/09/16 05:55:13;;;;;;;9.73;2.00;;;14.20;1.00;;;;;;5076761;28;20191;-80
2022/09/16 05:58:01;;;;;;;9.30;1.97;;;14.20;1.00;;;;;;5076924;28;20461;-80
2022/09/16 06:00:31;;;;;;;6.73;2.07;;;14.30;1.00;;;;;;5088003;28;20533;-80
2022/09/16 06:03:01;;;;;;;3.73;1.87;;;14.40;1.00;;;;;;5081984;28;20489;-80
2022/09/16 06:05:27;;;;;;;4.90;2.40;;;14.50;1.00;;;;;;5077033;28;20487;-80
2022/09/16 06:08:02;;;;;;;9.90;2.20;;;14.60;1.00;;;;;;5089750;28;20503;-80
2022/09/16 06:11:02;;;;;;;4.50;2.00;;;14.60;1.00;;;;;;5076566;28;20638;-80
2022/09/16 06:13:38;;;;;;;2.80;1.87;;;14.70;1.00;;;;;;5077065;28;20403;-80
2022/09/16 06:16:05;;;;;;;10.00;1.97;;;14.60;1.00;;;;;;5079090;28;20522;-81
2022/09/16 06:18:32;;;;;;;7.03;1.90;;;14.80;1.00;;;;;;5076508;28;20420;-80
2022/09/16 06:21:25;;;;;;;2.70;1.63;;;14.80;1.00;;;;;;5089367;28;20539;-80
2022/09/16 06:24:02;;;;;;;3.87;1.60;;;14.90;1.00;;;;;;5086768;28;20427;-80
2022/09/16 06:26:28;;;;;;;5.50;1.80;;;15.00;1.00;;;;;;5087707;28;20424;-80
2022/09/16 06:29:08;;;;;;;5.87;1.73;;;15.00;1.00;;;;;;5095165;28;20416;-80
2022/09/16 06:31:35;;;;;;;3.83;1.50;;;15.10;1.00;;;;;;5087184;28;21051;-80
2022/09/16 06:34:31;;;;;;;2.77;1.80;;;15.10;1.00;;;;;;5089115;28;20794;-81
2022/09/16 06:37:19;;;;;;;6.60;1.73;;;15.20;1.00;;;;;;5075944;28;20433;-82
2022/09/16 06:43:14;;;;;;;3.13;1.50;;;15.40;1.00;;;;;;5081881;28;20404;-80
2022/09/16 06:46:04;;;;;;;3.93;1.53;;;15.40;1.00;;;;;;5076141;28;20397;-81
2022/09/16 06:49:09;;;;;;;3.47;1.70;;;15.50;1.00;;;;;;5077450;28;20954;-81
2022/09/16 06:52:25;;;;;;;8.80;1.57;;;15.50;1.00;;;;;;5080927;28;20425;-81
2022/09/16 06:54:55;;;;;;;4.60;2.00;;;15.60;1.00;;;;;;5087914;28;20583;-81
2022/09/16 06:57:37;;;;;;;9.20;1.40;;;15.70;1.00;;;;;;5080860;28;20822;-81
2022/09/16 07:00:08;;;;;;;5.23;1.43;;;15.70;1.00;;;;;;5083199;28;20448;-81
2022/09/16 07:03:07;;;;;;;3.33;1.50;;;15.80;1.00;;;;;;5090587;28;20939;-81
2022/09/16 07:05:33;;;;;;;3.83;1.70;;;15.90;1.00;;;;;;5094181;28;20446;-81
2022/09/16 07:11:22;;;;;;;5.17;1.50;;;15.90;1.00;;;;;;5075765;28;20730;-82
2022/09/16 07:17:09;;;;;;;2.20;1.33;;;15.90;1.00;;;;;;5076534;28;20918;-82
2022/09/16 07:20:25;;;;;;;2.87;1.57;;;16.00;1.00;;;;;;5076496;28;20404;-79
2022/09/16 07:23:01;;;;;;;2.83;1.33;;;16.10;1.00;;;;;;5081878;28;20230;-82
2022/09/16 07:26:02;;;;;;;7.27;1.37;;;16.10;1.00;;;;;;5077915;28;20428;-85
2022/09/16 07:28:38;;;;;;;2.60;1.20;;;16.10;1.00;;;;;;5088761;28;20470;-76
2022/09/16 07:31:10;;;;;;;4.83;1.40;;;16.20;1.00;;;;;;5084438;28;20432;-76
2022/09/16 07:33:40;;;;;;;10.63;1.27;;;16.10;1.00;;;;;;5091217;28;20464;-76
2022/09/16 07:36:10;;;;;;;4.77;1.40;;;16.20;1.00;;;;;;5077809;28;20400;-76
2022/09/16 07:38:43;;;;;;;7.60;1.67;;;16.20;1.00;;;;;;5078963;28;20916;-76
2022/09/16 07:41:28;;;;;;;5.90;1.03;;;16.30;1.00;;;;;;5091267;28;20451;-76
2022/09/16 07:43:58;;;;;;;3.67;1.40;;;16.20;1.00;;;;;;5075857;28;20388;-76
2022/09/16 07:46:29;;;;;;;7.00;1.40;;;16.50;1.00;;;;;;5074214;28;20408;-79
2022/09/16 07:48:58;;;;;;;4.47;1.27;;;16.60;1.00;;;;;;5075108;28;20781;-80
2022/09/16 07:51:32;;;;;;;4.23;1.30;;;16.90;1.00;;;;;;5079051;28;20961;-78
2022/09/16 07:54:15;;;;;;;5.10;1.30;;;17.20;1.00;;;;;;5076475;28;20476;-78
2022/09/16 07:56:44;;;;;;;2.50;1.20;;;17.40;1.00;;;;;;5084523;28;20966;-79
2022/09/16 07:59:16;;;;;;;6.20;1.30;;;17.60;1.00;;;;;;5092137;28;20441;-77
2022/09/16 08:01:42;;;;;;;3.67;1.60;;;17.70;1.00;;;;;;5074975;28;20922;-78
2022/09/16 08:04:43;;;;;;;9.13;1.53;;;17.70;1.00;;;;;;5084733;28;20421;-77
2022/09/16 08:07:37;;;;;;;10.67;1.60;;;17.50;1.00;;;;;;5075046;28;20268;-82
2022/09/16 08:10:19;;;;;;;6.90;1.53;;;17.30;1.00;;;;;;5085883;28;20743;-77
2022/09/16 08:12:46;;;;;;;5.73;1.33;;;17.20;1.00;;;;;;5076318;28;20392;-77
2022/09/16 08:15:12;;;;;;;11.33;1.57;;;16.90;1.00;;;;;;5082713;28;20439;-77
2022/09/16 08:17:43;;;;;;;1.70;1.10;;;16.70;1.00;;;;;;5080750;28;20383;-77
2022/09/16 08:20:13;;;;;;;7.93;1.80;;;16.50;1.00;;;;;;5083525;28;20209;-75
2022/09/16 08:22:49;;;;;;;6.33;1.40;;;16.40;1.00;;;;;;5083053;28;20433;-74
2022/09/16 08:25:15;;;;;;;2.17;1.30;;;16.30;1.00;;;;;;5093639;28;20428;-74
2022/09/16 08:27:43;;;;;;;4.47;1.40;;;16.30;1.00;;;;;;5083484;28;20520;-75
2022/09/16 08:30:13;;;;;;;3.83;1.30;;;16.30;1.00;;;;;;5088228;28;20193;-74
2022/09/16 08:32:59;;;;;;;7.70;1.47;;;16.50;1.00;;;;;;5084429;28;20957;-75
2022/09/16 08:35:25;;;;;;;3.53;1.20;;;16.60;1.00;;;;;;5079369;28;20463;-79
2022/09/16 08:38:07;;;;;;;8.33;1.27;;;16.60;1.00;;;;;;5079106;28;20482;-76
2022/09/16 08:40:35;;;;;;;2.13;1.10;;;16.80;1.00;;;;;;5082571;28;20431;-75
2022/09/16 08:43:30;;;;;;;11.73;0.90;;;17.10;1.00;;;;;;5088447;28;20418;-76
2022/09/16 08:46:19;;;;;;;4.07;1.13;;;16.90;1.00;;;;;;5076189;28;20439;-76
2022/09/16 08:48:54;;;;;;;3.63;1.00;;;17.10;1.00;;;;;;5086365;28;20925;-76
2022/09/16 08:54:55;;;;;;;4.67;1.07;;;17.30;1.00;;;;;;5086832;28;20449;-82
2022/09/16 08:57:25;;;;;;;8.80;1.27;;;17.30;1.00;;;;;;5075962;28;20521;-82
2022/09/16 09:00:14;;;;;;;5.70;1.10;;;17.30;1.00;;;;;;5075910;28;20392;-82
2022/09/16 09:03:07;;;;;;;3.27;0.90;;;17.30;1.00;;;;;;5086360;28;20397;-91
2022/09/16 09:05:56;;;;;;;3.47;0.90;;;17.40;1.00;;;;;;5073767;28;20447;-88
2022/09/16 09:11:59;;;;;;;3.13;1.33;;;17.50;1.00;;;;;;5074248;28;20479;-81
2022/09/16 09:21:32;;;;;;;6.67;0.90;;;17.80;1.00;;;;;;5079226;28;20482;-88
2022/09/16 09:27:55;;;;;;;4.50;1.20;;;18.10;1.00;;;;;;5011657;28;20468;-88
2022/09/16 09:30:40;;;;;;;2.43;0.93;;;18.40;1.00;;;;;;4990779;28;20421;-79
2022/09/16 09:33:29;;;;;;;8.27;0.80;;;18.70;1.00;;;;;;5011505;28;20801;-79
2022/09/16 09:36:17;;;;;;;1.13;1.00;;;19.10;1.00;;;;;;5008409;28;20811;-78
2022/09/16 09:39:10;;;;;;;4.20;0.90;;;19.20;1.00;;;;;;5011599;28;20409;-75
2022/09/16 09:41:58;;;;;;;3.00;1.10;;;19.20;1.00;;;;;;5010818;28;20565;-75
2022/09/16 09:44:46;;;;;;;4.20;0.73;;;19.30;1.00;;;;;;5010682;28;20457;-75
2022/09/16 09:47:24;;;;;;;5.43;0.80;;;19.30;1.00;;;;;;5010419;28;20447;-75
2022/09/16 09:49:54;;;;;;;4.53;1.00;;;19.30;1.00;;;;;;5005910;28;20435;-75
2022/09/16 09:52:55;;;;;;;2.73;0.87;;;19.10;1.00;;;;;;4994491;28;20442;-81
2022/09/16 09:58:55;;;;;;;2.80;0.80;;;19.60;1.00;;;;;;4944971;28;20480;-81
2022/09/16 10:01:25;;;;;;;6.47;1.00;;;19.30;1.00;;;;;;5000227;28;20505;-81
2022/09/16 10:03:57;;;;;;;2.40;1.33;;;19.30;1.00;;;;;;5026371;28;20458;-81
2022/09/16 10:06:32;;;;;;;4.53;0.93;;;19.50;1.00;;;;;;5030863;28;20525;-80
2022/09/16 10:09:01;;;;;;;2.73;0.80;;;19.60;1.00;;;;;;5006784;28;21249;-81
2022/09/16 10:11:32;;;;;;;5.00;1.13;;;19.60;1.00;;;;;;5026053;28;20456;-81
2022/09/16 10:14:37;;;;;;;6.53;0.70;;;19.40;1.00;;;;;;5030933;28;20477;-79
2022/09/16 10:17:16;;;;;;;5.40;1.00;;;19.20;1.00;;;;;;5037749;28;20454;-77
2022/09/16 10:20:04;;;;;;;6.70;1.10;;;19.20;1.00;;;;;;5030558;28;20502;-77
2022/09/16 10:22:33;;;;;;;2.53;0.70;;;19.10;1.00;;;;;;5025794;28;20454;-77
2022/09/16 10:25:34;;;;;;;4.50;0.80;;;18.90;1.00;;;;;;5027958;28;20532;-78
2022/09/16 10:28:21;;;;;;;2.70;0.70;;;18.90;1.00;;;;;;4947394;29;20502;-78
2022/09/16 10:30:55;;;;;;;3.43;0.63;;;19.00;1.00;;;;;;5013823;28;20446;-78
2022/09/16 10:33:42;;;;;;;3.33;0.83;;;19.10;1.00;;;;;;5013402;28;21035;-81
2022/09/16 10:36:22;;;;;;;1.40;0.80;;;19.20;1.00;;;;;;5014314;28;20802;-78
2022/09/16 10:38:59;;;;;;;2.27;0.90;;;19.10;1.00;;;;;;4997083;28;20461;-78
2022/09/16 10:41:43;;;;;;;4.50;0.60;;;19.10;1.00;;;;;;4996877;28;20999;-78
2022/09/16 10:44:29;;;;;;;3.23;0.97;;;19.20;1.00;;;;;;5012276;28;20506;-78
2022/09/16 10:47:00;;;;;;;4.90;0.80;;;19.50;1.00;;;;;;5013722;28;20546;-81
2022/09/16 10:49:37;;;;;;;0.80;0.60;;;19.50;1.00;;;;;;5013963;28;20419;-81
2022/09/16 10:52:25;;;;;;;2.60;0.90;;;19.60;1.00;;;;;;5005681;28;20435;-81
2022/09/16 10:55:20;;;;;;;4.63;0.80;;;20.10;1.00;;;;;;5010414;28;20431;-88
2022/09/16 10:58:08;;;;;;;3.90;0.87;;;20.40;1.00;;;;;;5007258;28;20441;-78
2022/09/16 11:01:12;;;;;;;2.70;0.60;;;20.40;1.00;;;;;;5013075;28;20533;-78
2022/09/16 11:04:11;;;;;;;1.60;0.73;;;20.80;1.00;;;;;;4995867;28;20409;-78
2022/09/16 11:06:43;;;;;;;3.10;0.83;;;20.50;1.00;;;;;;5022938;28;20420;-78
2022/09/16 11:09:20;;;;;;;7.63;1.00;;;20.30;1.00;;;;;;5027455;28;20448;-76
2022/09/16 11:11:54;;;;;;;3.63;0.90;;;20.20;1.00;;;;;;5033931;28;20410;-75
2022/09/16 11:14:51;;;;;;;2.50;0.80;;;19.90;1.00;;;;;;5025969;28;20438;-74
2022/09/16 11:17:25;;;;;;;1.87;1.00;;;19.60;1.00;;;;;;5031377;28;20447;-74
2022/09/16 11:20:24;;;;;;;2.73;0.80;;;19.40;1.00;;;;;;5032119;28;20424;-75
2022/09/16 11:23:27;;;;;;;8.17;1.00;;;19.10;1.00;;;;;;5016449;28;20410;-76
2022/09/16 11:25:59;;;;;;;3.70;1.00;;;18.90;1.00;;;;;;5021634;28;20446;-76
2022/09/16 11:28:36;;;;;;;0.87;0.70;;;19.10;1.00;;;;;;5029084;28;20438;-75
2022/09/16 11:31:29;;;;;;;0.93;0.70;;;19.50;1.00;;;;;;5001991;28;20868;-75
2022/09/16 11:34:21;;;;;;;1.77;0.70;;;19.90;1.00;;;;;;5016805;28;20422;-75
2022/09/16 11:36:47;;;;;;;2.40;0.70;;;20.30;1.00;;;;;;5030117;28;20552;-75
2022/09/16 11:39:23;;;;;;;4.37;0.80;;;20.40;1.00;;;;;;5032570;28;20519;-78
2022/09/16 11:42:03;;;;;;;0.90;0.70;;;20.60;1.00;;;;;;5071347;28;20199;-78
2022/09/16 11:44:41;;;;;;;4.53;0.80;;;20.40;1.00;;;;;;5076186;28;20936;-78
2022/09/16 11:47:44;;;;;;;1.67;0.73;;;20.10;1.00;;;;;;5074371;28;20406;-78
2022/09/16 11:50:32;;;;;;;1.60;0.90;;;20.10;1.00;;;;;;5082706;28;20810;-78
2022/09/16 11:53:22;;;;;;;4.00;0.87;;;20.30;1.00;;;;;;5088995;28;20421;-78
2022/09/16 11:56:19;;;;;;;1.53;0.60;;;20.50;1.00;;;;;;5071862;28;20998;-79
2022/09/16 11:59:33;;;;;;;1.70;0.70;;;20.00;1.00;;;;;;5075649;28;20400;-78
2022/09/16 12:02:23;;;;;;;1.37;0.70;;;19.60;1.00;;;;;;4998026;28;20506;-79
2022/09/16 12:05:17;;;;;;;0.60;0.60;;;19.20;1.00;;;;;;5001652;28;20543;-79
2022/09/16 12:08:03;;;;;;;2.00;0.70;;;18.60;1.00;;;;;;5004914;28;20429;-78
2022/09/16 12:11:00;;;;;;;1.83;0.80;;;18.10;1.00;;;;;;4993714;28;20418;-79
2022/09/16 12:13:34;;;;;;;4.60;1.37;;;17.90;1.00;;;;;;5003029;28;20441;-78
2022/09/16 12:16:25;;;;;;;2.30;1.00;;;17.40;1.00;;;;;;5007354;28;20407;-79
2022/09/16 12:18:59;;;;;;;1.47;1.13;;;17.10;1.00;;;;;;5009720;28;20424;-78
2022/09/16 12:22:07;;;;;;;1.80;1.27;;;17.00;1.00;;;;;;5009467;28;20799;-78
2022/09/16 12:25:05;;;;;;;3.10;1.50;;;16.90;1.00;;;;;;5005095;28;20416;-75
2022/09/16 12:27:47;;;;;;;1.93;1.50;;;16.90;1.00;;;;;;4943318;28;20414;-74
2022/09/16 12:33:27;;;;;;;2.70;1.13;;;17.30;1.00;;;;;;5079872;27;20918;-75
2022/09/16 12:36:05;;;;;;;3.30;1.30;;;17.40;1.00;;;;;;5071598;28;20409;-75
2022/09/16 12:38:32;;;;;;;1.70;0.97;;;17.70;1.00;;;;;;5057712;28;20943;-78
2022/09/16 12:41:28;;;;;;;1.63;0.90;;;18.00;1.00;;;;;;5066509;28;20481;-78
2022/09/16 12:44:10;;;;;;;1.67;1.10;;;18.30;1.00;;;;;;5053933;28;20410;-76
2022/09/16 12:46:55;;;;;;;1.53;1.00;;;18.60;1.00;;;;;;5060205;28;20947;-80
2022/09/16 12:52:58;;;;;;;1.93;1.07;;;18.70;1.00;;;;;;5061364;28;20457;-78
2022/09/16 12:55:39;;;;;;;2.77;0.80;;;18.60;1.00;;;;;;5084310;28;20464;-77
2022/09/16 12:58:16;;;;;;;2.63;0.90;;;18.70;1.00;;;;;;5051956;28;20424;-77
2022/09/16 13:01:08;;;;;;;1.23;1.00;;;18.70;1.00;;;;;;5071971;28;20430;-77
2022/09/16 13:03:39;;;;;;;5.43;1.37;;;18.60;1.00;;;;;;5063848;28;20404;-77
2022/09/16 13:06:25;;;;;;;2.80;1.27;;;18.70;1.00;;;;;;5065195;28;20441;-76
2022/09/16 13:09:21;;;;;;;2.43;1.20;;;18.60;1.00;;;;;;5070577;28;20497;-77
2022/09/16 13:12:00;;;;;;;1.30;1.07;;;18.70;1.00;;;;;;5065014;28;20464;-76
2022/09/16 13:14:52;;;;;;;1.50;1.10;;;18.80;1.00;;;;;;5062330;28;20411;-76
2022/09/16 13:17:28;;;;;;;1.80;1.20;;;18.70;1.00;;;;;;5064272;28;20441;-76
2022/09/16 13:20:10;;;;;;;0.80;0.73;;;18.80;1.00;;;;;;5068079;28;20408;-76
2022/09/16 13:22:55;;;;;;;1.93;1.10;;;18.80;1.00;;;;;;5058585;28;20416;-77
2022/09/16 13:25:20;;;;;;;1.97;0.90;;;18.90;1.00;;;;;;5056998;28;20956;-79
2022/09/16 13:28:31;;;;;;;2.20;1.00;;;19.00;1.00;;;;;;5062426;28;20464;-78
2022/09/16 13:31:27;;;;;;;2.87;0.63;;;19.20;1.00;;;;;;5068097;28;20244;-79
2022/09/16 13:37:15;;;;;;;0.97;0.70;;;19.10;1.00;;;;;;5061966;28;20432;-78
2022/09/16 13:39:44;;;;;;;2.40;1.03;;;19.10;1.00;;;;;;5055004;28;20845;-81
2022/09/16 13:42:31;;;;;;;1.63;0.83;;;19.30;1.00;;;;;;5064499;28;20605;-80
2022/09/16 13:45:37;;;;;;;3.03;0.80;;;19.50;1.00;;;;;;5051073;28;20444;-78
2022/09/16 13:48:23;;;;;;;1.57;0.63;;;19.60;1.00;;;;;;5044526;28;20429;-78
2022/09/16 13:51:00;;;;;;;1.17;0.70;;;19.70;1.00;;;;;;5044641;28;20560;-78
2022/09/16 13:53:41;;;;;;;2.90;0.50;;;20.00;1.00;;;;;;5045852;28;20397;-79
2022/09/16 13:56:22;;;;;;;1.00;0.80;;;20.50;1.00;;;;;;5041044;28;20474;-76
2022/09/16 13:59:00;;;;;;;1.67;0.73;;;20.70;1.00;;;;;;5055870;28;20421;-76
2022/09/16 14:01:40;;;;;;;1.23;0.60;;;20.90;1.00;;;;;;5046073;28;20656;-75
2022/09/16 14:04:30;;;;;;;1.67;0.63;;;21.10;1.00;;;;;;5070164;28;20439;-75
2022/09/16 14:06:56;;;;;;;1.00;0.60;;;21.00;1.00;;;;;;5065416;28;20430;-75
2022/09/16 14:09:29;;;;;;;2.20;0.60;;;21.30;1.00;;;;;;5056224;28;20428;-75
2022/09/16 14:12:04;;;;;;;2.33;0.90;;;21.40;1.00;;;;;;5042829;28;20205;-76
2022/09/16 14:14:32;;;;;;;1.20;0.60;;;21.20;1.00;;;;;;5045222;28;20467;-76
2022/09/16 14:17:02;;;;;;;1.23;0.87;;;20.90;1.00;;;;;;5052170;28;20415;-76
2022/09/16 14:19:38;;;;;;;1.23;0.60;;;20.50;1.00;;;;;;5050072;28;20795;-76
2022/09/16 14:22:10;;;;;;;6.33;1.20;;;20.10;1.00;;;;;;5055155;28;20428;-76
2022/09/16 14:24:40;;;;;;;7.70;1.77;;;19.70;1.00;;;;;;5052895;28;20789;-75
2022/09/16 14:27:38;;;;;;;2.10;0.80;;;19.20;1.00;;;;;;5053677;28;20453;-75
2022/09/16 14:30:23;;;;;;;4.13;1.37;;;18.70;1.00;;;;;;5036511;28;20437;-76
2022/09/16 14:32:50;;;;;;;5.80;1.10;;;18.40;1.00;;;;;;5035728;28;20487;-74
2022/09/16 14:35:25;;;;;;;8.30;1.27;;;18.30;1.00;;;;;;5052824;28;20460;-75
2022/09/16 14:38:04;;;;;;;2.83;0.90;;;18.10;1.00;;;;;;5038704;28;20485;-77
2022/09/16 14:40:40;;;;;;;6.73;1.10;;;18.00;1.00;;;;;;5040756;28;20417;-76
2022/09/16 14:43:25;;;;;;;2.70;1.47;;;17.80;1.00;;;;;;5044712;28;20443;-77
2022/09/16 14:45:55;;;;;;;3.83;1.30;;;17.70;1.00;;;;;;5041896;28;20386;-77
2022/09/16 14:48:32;;;;;;;6.87;1.00;;;17.70;1.00;;;;;;5049907;28;20514;-77
2022/09/16 14:50:59;;;;;;;10.13;1.17;;;17.80;1.00;;;;;;5053618;28;20448;-75
2022/09/16 14:53:38;;;;;;;4.83;1.70;;;18.00;1.00;;;;;;5055092;28;20494;-76
2022/09/16 14:56:24;;;;;;;4.50;1.10;;;18.00;1.00;;;;;;5045096;28;20444;-75
2022/09/16 14:58:52;;;;;;;3.60;1.13;;;18.20;1.00;;;;;;5054760;28;20403;-76
2022/09/16 15:01:32;;;;;;;4.13;1.37;;;18.20;1.00;;;;;;5046852;28;20441;-76
2022/09/16 15:04:09;;;;;;;2.60;1.10;;;18.40;1.00;;;;;;5054810;28;20442;-75